sensor_id;sensor_type;location;lat;lon;timestamp;P1;durP1;ratioP1;P2;durP2;ratioP2
20093;SDS011;10206;48.012;10.030;2022-12-29T00:00:02;2.10;;;1.70;;
20093;SDS011;10206;48.012;10.030;2022-12-29T00:02:29;3.57;;;1.70;;
20093;SDS011;10206;48.012;10.030;2022-12-29T00:04:55;2.00;;;1.80;;
20093;SDS011;10206;48.012;10.030;2022-12-29T00:07:21;2.10;;;1.60;;
20093;SDS011;10206;48.012;10.030;2022-12-29T00:09:47;3.70;;;1.70;;
20093;SDS011;10206;48.012;10.030;2022-12-29T00:12:13;1.93;;;1.73;;
20093;SDS011;10206;48.012;10.030;2022-12-29T00:14:39;3.10;;;1.60;;
20093;SDS011;10206;48.012;10.030;2022-12-29T00:17:29;1.60;;;1.47;;
20093;SDS011;10206;48.012;10.030;2022-12-29T00:19:55;2.77;;;1.40;;
20093;SDS011;10206;48.012;10.030;2022-12-29T00:22:40;1.47;;;1.30;;
20093;SDS011;10206;48.012;10.030;2022-12-29T00:25:24;2.90;;;1.60;;
20093;SDS011;10206;48.012;10.030;2022-12-29T00:28:09;2.00;;;1.70;;
20093;SDS011;10206;48.012;10.030;2022-12-29T00:30:58;2.77;;;1.80;;
20093;SDS011;10206;48.012;10.030;2022-12-29T00:33:43;1.70;;;1.60;;
20093;SDS011;10206;48.012;10.030;2022-12-29T00:36:31;2.30;;;1.40;;
20093;SDS011;10206;48.012;10.030;2022-12-29T00:39:07;2.03;;;1.50;;
20093;SDS011;10206;48.012;10.030;2022-12-29T00:42:12;1.77;;;1.50;;
20093;SDS011;10206;48.012;10.030;2022-12-29T00:45:04;2.23;;;1.70;;
20093;SDS011;10206;48.012;10.030;2022-12-29T00:47:30;2.90;;;1.77;;
20093;SDS011;10206;48.012;10.030;2022-12-29T00:49:57;1.87;;;1.60;;
20093;SDS011;10206;48.012;10.030;2022-12-29T00:52:23;2.60;;;1.57;;
20093;SDS011;10206;48.012;10.030;2022-12-29T00:54:49;2.17;;;1.70;;
20093;SDS011;10206;48.012;10.030;2022-12-29T00:57:15;6.20;;;1.83;;
20093;SDS011;10206;48.012;10.030;2022-12-29T00:59:42;1.83;;;1.53;;
20093;SDS011;10206;48.012;10.030;2022-12-29T01:02:08;1.53;;;1.43;;
20093;SDS011;10206;48.012;10.030;2022-12-29T01:04:35;1.97;;;1.53;;
20093;SDS011;10206;48.012;10.030;2022-12-29T01:07:02;2.37;;;2.00;;
20093;SDS011;10206;48.012;10.030;2022-12-29T01:09:28;2.80;;;1.90;;
20093;SDS011;10206;48.012;10.030;2022-12-29T01:12:14;1.80;;;1.60;;
20093;SDS011;10206;48.012;10.030;2022-12-29T01:14:40;1.87;;;1.50;;
20093;SDS011;10206;48.012;10.030;2022-12-29T01:17:07;1.70;;;1.60;;
20093;SDS011;10206;48.012;10.030;2022-12-29T01:19:33;2.67;;;1.80;;
20093;SDS011;10206;48.012;10.030;2022-12-29T01:21:59;2.70;;;1.60;;
20093;SDS011;10206;48.012;10.030;2022-12-29T01:24:26;2.30;;;1.37;;
20093;SDS011;10206;48.012;10.030;2022-12-29T01:26:52;2.10;;;1.60;;
20093;SDS011;10206;48.012;10.030;2022-12-29T01:29:19;1.50;;;1.30;;
20093;SDS011;10206;48.012;10.030;2022-12-29T01:31:45;2.53;;;1.60;;
20093;SDS011;10206;48.012;10.030;2022-12-29T01:34:11;2.07;;;1.87;;
20093;SDS011;10206;48.012;10.030;2022-12-29T01:36:38;1.50;;;1.40;;
20093;SDS011;10206;48.012;10.030;2022-12-29T01:39:04;2.20;;;1.80;;
20093;SDS011;10206;48.012;10.030;2022-12-29T01:41:30;1.60;;;1.50;;
20093;SDS011;10206;48.012;10.030;2022-12-29T01:43:57;2.10;;;1.60;;
20093;SDS011;10206;48.012;10.030;2022-12-29T01:49:14;1.97;;;1.50;;
20093;SDS011;10206;48.012;10.030;2022-12-29T01:51:54;3.60;;;1.53;;
20093;SDS011;10206;48.012;10.030;2022-12-29T01:54:28;1.97;;;1.50;;
20093;SDS011;10206;48.012;10.030;2022-12-29T01:56:59;1.57;;;1.47;;
20093;SDS011;10206;48.012;10.030;2022-12-29T01:59:29;2.00;;;1.47;;
20093;SDS011;10206;48.012;10.030;2022-12-29T02:02:03;2.43;;;1.40;;
20093;SDS011;10206;48.012;10.030;2022-12-29T02:04:31;1.70;;;1.40;;
20093;SDS011;10206;48.012;10.030;2022-12-29T02:07:02;1.40;;;1.30;;
20093;SDS011;10206;48.012;10.030;2022-12-29T02:09:31;1.80;;;1.40;;
20093;SDS011;10206;48.012;10.030;2022-12-29T02:11:57;2.20;;;1.63;;
20093;SDS011;10206;48.012;10.030;2022-12-29T02:14:24;2.17;;;1.60;;
20093;SDS011;10206;48.012;10.030;2022-12-29T02:19:26;1.90;;;1.70;;
20093;SDS011;10206;48.012;10.030;2022-12-29T02:22:08;1.83;;;1.50;;
20093;SDS011;10206;48.012;10.030;2022-12-29T02:25:00;1.80;;;1.30;;
20093;SDS011;10206;48.012;10.030;2022-12-29T02:27:48;2.00;;;1.60;;
20093;SDS011;10206;48.012;10.030;2022-12-29T02:41:49;1.60;;;1.40;;
20093;SDS011;10206;48.012;10.030;2022-12-29T02:44:39;1.90;;;1.40;;
20093;SDS011;10206;48.012;10.030;2022-12-29T02:47:56;1.43;;;1.33;;
20093;SDS011;10206;48.012;10.030;2022-12-29T02:50:29;1.50;;;1.33;;
20093;SDS011;10206;48.012;10.030;2022-12-29T02:53:02;2.83;;;1.50;;
20093;SDS011;10206;48.012;10.030;2022-12-29T02:55:32;3.37;;;1.70;;
20093;SDS011;10206;48.012;10.030;2022-12-29T03:01:31;1.30;;;1.20;;
20093;SDS011;10206;48.012;10.030;2022-12-29T03:03:47;1.57;;;1.47;;
20093;SDS011;10206;48.012;10.030;2022-12-29T03:15:13;1.40;;;1.20;;
20093;SDS011;10206;48.012;10.030;2022-12-29T03:18:14;1.47;;;1.30;;
20093;SDS011;10206;48.012;10.030;2022-12-29T03:20:52;2.80;;;1.30;;
20093;SDS011;10206;48.012;10.030;2022-12-29T03:23:20;2.33;;;1.30;;
20093;SDS011;10206;48.012;10.030;2022-12-29T03:25:49;1.40;;;1.23;;
20093;SDS011;10206;48.012;10.030;2022-12-29T03:28:21;3.50;;;1.60;;
20093;SDS011;10206;48.012;10.030;2022-12-29T03:30:51;1.40;;;1.30;;
20093;SDS011;10206;48.012;10.030;2022-12-29T03:33:21;1.93;;;1.47;;
20093;SDS011;10206;48.012;10.030;2022-12-29T03:35:48;1.77;;;1.43;;
20093;SDS011;10206;48.012;10.030;2022-12-29T03:41:13;1.60;;;1.37;;
20093;SDS011;10206;48.012;10.030;2022-12-29T03:43:43;1.53;;;1.30;;
20093;SDS011;10206;48.012;10.030;2022-12-29T03:46:09;2.53;;;1.30;;
20093;SDS011;10206;48.012;10.030;2022-12-29T03:48:36;2.87;;;1.20;;
20093;SDS011;10206;48.012;10.030;2022-12-29T03:51:02;1.23;;;1.10;;
20093;SDS011;10206;48.012;10.030;2022-12-29T03:53:28;1.40;;;1.30;;
20093;SDS011;10206;48.012;10.030;2022-12-29T03:55:54;1.50;;;1.40;;
20093;SDS011;10206;48.012;10.030;2022-12-29T03:58:20;1.40;;;1.30;;
20093;SDS011;10206;48.012;10.030;2022-12-29T04:00:46;1.13;;;1.10;;
20093;SDS011;10206;48.012;10.030;2022-12-29T04:03:12;1.53;;;1.00;;
20093;SDS011;10206;48.012;10.030;2022-12-29T04:05:38;1.50;;;1.30;;
20093;SDS011;10206;48.012;10.030;2022-12-29T04:08:04;2.40;;;1.10;;
20093;SDS011;10206;48.012;10.030;2022-12-29T04:10:30;2.27;;;1.30;;
20093;SDS011;10206;48.012;10.030;2022-12-29T04:12:56;2.60;;;1.13;;
20093;SDS011;10206;48.012;10.030;2022-12-29T04:15:23;1.40;;;1.20;;
20093;SDS011;10206;48.012;10.030;2022-12-29T04:17:51;2.27;;;1.30;;
20093;SDS011;10206;48.012;10.030;2022-12-29T04:20:17;4.40;;;1.37;;
20093;SDS011;10206;48.012;10.030;2022-12-29T04:23:02;1.47;;;1.23;;
20093;SDS011;10206;48.012;10.030;2022-12-29T04:25:30;1.83;;;1.30;;
20093;SDS011;10206;48.012;10.030;2022-12-29T04:27:57;2.07;;;1.30;;
20093;SDS011;10206;48.012;10.030;2022-12-29T04:30:23;2.10;;;1.20;;
20093;SDS011;10206;48.012;10.030;2022-12-29T04:32:49;1.97;;;1.47;;
20093;SDS011;10206;48.012;10.030;2022-12-29T04:35:15;1.73;;;1.53;;
20093;SDS011;10206;48.012;10.030;2022-12-29T04:37:41;1.80;;;1.20;;
20093;SDS011;10206;48.012;10.030;2022-12-29T04:40:08;3.50;;;1.60;;
20093;SDS011;10206;48.012;10.030;2022-12-29T04:42:34;2.13;;;1.40;;
20093;SDS011;10206;48.012;10.030;2022-12-29T04:45:00;1.70;;;1.20;;
20093;SDS011;10206;48.012;10.030;2022-12-29T04:47:26;1.80;;;1.57;;
20093;SDS011;10206;48.012;10.030;2022-12-29T04:49:53;2.43;;;1.40;;
20093;SDS011;10206;48.012;10.030;2022-12-29T04:52:19;2.90;;;1.60;;
20093;SDS011;10206;48.012;10.030;2022-12-29T04:54:45;1.43;;;1.33;;
20093;SDS011;10206;48.012;10.030;2022-12-29T04:57:11;2.23;;;1.37;;
20093;SDS011;10206;48.012;10.030;2022-12-29T04:59:37;3.33;;;1.73;;
20093;SDS011;10206;48.012;10.030;2022-12-29T05:02:03;2.57;;;1.60;;
20093;SDS011;10206;48.012;10.030;2022-12-29T05:04:29;1.60;;;1.50;;
20093;SDS011;10206;48.012;10.030;2022-12-29T05:06:55;1.87;;;1.40;;
20093;SDS011;10206;48.012;10.030;2022-12-29T05:09:21;1.97;;;1.37;;
20093;SDS011;10206;48.012;10.030;2022-12-29T05:11:49;2.33;;;1.50;;
20093;SDS011;10206;48.012;10.030;2022-12-29T05:14:15;1.57;;;1.30;;
20093;SDS011;10206;48.012;10.030;2022-12-29T05:16:41;2.40;;;1.67;;
20093;SDS011;10206;48.012;10.030;2022-12-29T05:19:07;3.03;;;1.80;;
20093;SDS011;10206;48.012;10.030;2022-12-29T05:21:33;3.00;;;1.50;;
20093;SDS011;10206;48.012;10.030;2022-12-29T05:23:59;3.27;;;1.80;;
20093;SDS011;10206;48.012;10.030;2022-12-29T05:26:25;1.53;;;1.43;;
20093;SDS011;10206;48.012;10.030;2022-12-29T05:28:51;2.20;;;1.60;;
20093;SDS011;10206;48.012;10.030;2022-12-29T05:31:17;3.63;;;1.73;;
20093;SDS011;10206;48.012;10.030;2022-12-29T05:33:43;1.90;;;1.70;;
20093;SDS011;10206;48.012;10.030;2022-12-29T05:36:10;2.93;;;1.70;;
20093;SDS011;10206;48.012;10.030;2022-12-29T05:38:36;5.17;;;1.90;;
20093;SDS011;10206;48.012;10.030;2022-12-29T05:41:02;2.93;;;1.43;;
20093;SDS011;10206;48.012;10.030;2022-12-29T05:43:28;2.90;;;1.80;;
20093;SDS011;10206;48.012;10.030;2022-12-29T05:45:54;2.30;;;1.60;;
20093;SDS011;10206;48.012;10.030;2022-12-29T05:48:21;3.67;;;2.00;;
20093;SDS011;10206;48.012;10.030;2022-12-29T05:50:48;6.20;;;1.90;;
20093;SDS011;10206;48.012;10.030;2022-12-29T05:53:14;2.63;;;1.90;;
20093;SDS011;10206;48.012;10.030;2022-12-29T05:55:41;5.60;;;1.90;;
20093;SDS011;10206;48.012;10.030;2022-12-29T05:58:08;2.77;;;1.83;;
20093;SDS011;10206;48.012;10.030;2022-12-29T06:00:34;2.77;;;1.60;;
20093;SDS011;10206;48.012;10.030;2022-12-29T06:03:00;2.97;;;1.60;;
20093;SDS011;10206;48.012;10.030;2022-12-29T06:05:26;2.47;;;1.60;;
20093;SDS011;10206;48.012;10.030;2022-12-29T06:07:52;4.33;;;1.90;;
20093;SDS011;10206;48.012;10.030;2022-12-29T06:10:19;3.93;;;2.00;;
20093;SDS011;10206;48.012;10.030;2022-12-29T06:12:45;4.23;;;1.93;;
20093;SDS011;10206;48.012;10.030;2022-12-29T06:15:12;3.57;;;2.27;;
20093;SDS011;10206;48.012;10.030;2022-12-29T06:17:38;5.33;;;2.93;;
20093;SDS011;10206;48.012;10.030;2022-12-29T06:20:05;3.97;;;2.30;;
20093;SDS011;10206;48.012;10.030;2022-12-29T06:22:32;4.40;;;2.60;;
20093;SDS011;10206;48.012;10.030;2022-12-29T06:24:59;5.87;;;2.60;;
20093;SDS011;10206;48.012;10.030;2022-12-29T06:27:26;4.67;;;2.17;;
20093;SDS011;10206;48.012;10.030;2022-12-29T06:29:53;3.20;;;2.27;;
20093;SDS011;10206;48.012;10.030;2022-12-29T06:32:19;4.87;;;2.70;;
20093;SDS011;10206;48.012;10.030;2022-12-29T06:34:45;2.93;;;2.00;;
20093;SDS011;10206;48.012;10.030;2022-12-29T06:37:11;2.67;;;2.00;;
20093;SDS011;10206;48.012;10.030;2022-12-29T06:39:38;4.47;;;2.00;;
20093;SDS011;10206;48.012;10.030;2022-12-29T06:42:04;2.50;;;2.00;;
20093;SDS011;10206;48.012;10.030;2022-12-29T06:44:30;2.83;;;1.93;;
20093;SDS011;10206;48.012;10.030;2022-12-29T06:46:56;3.37;;;2.53;;
20093;SDS011;10206;48.012;10.030;2022-12-29T06:49:22;2.53;;;2.07;;
20093;SDS011;10206;48.012;10.030;2022-12-29T06:51:49;2.70;;;2.10;;
20093;SDS011;10206;48.012;10.030;2022-12-29T06:54:15;2.40;;;2.10;;
20093;SDS011;10206;48.012;10.030;2022-12-29T06:56:41;2.70;;;2.37;;
20093;SDS011;10206;48.012;10.030;2022-12-29T06:59:07;2.60;;;2.30;;
20093;SDS011;10206;48.012;10.030;2022-12-29T07:01:34;1.90;;;1.70;;
20093;SDS011;10206;48.012;10.030;2022-12-29T07:04:00;4.50;;;2.30;;
20093;SDS011;10206;48.012;10.030;2022-12-29T07:06:27;3.13;;;2.00;;
20093;SDS011;10206;48.012;10.030;2022-12-29T07:08:53;2.30;;;2.00;;
20093;SDS011;10206;48.012;10.030;2022-12-29T07:11:22;2.07;;;1.70;;
20093;SDS011;10206;48.012;10.030;2022-12-29T07:13:48;3.30;;;2.20;;
20093;SDS011;10206;48.012;10.030;2022-12-29T07:16:15;3.40;;;2.00;;
20093;SDS011;10206;48.012;10.030;2022-12-29T07:18:41;4.10;;;2.30;;
20093;SDS011;10206;48.012;10.030;2022-12-29T07:21:07;2.50;;;2.00;;
20093;SDS011;10206;48.012;10.030;2022-12-29T07:23:34;2.00;;;1.80;;
20093;SDS011;10206;48.012;10.030;2022-12-29T07:26:04;1.80;;;1.70;;
20093;SDS011;10206;48.012;10.030;2022-12-29T07:28:31;2.60;;;1.80;;
20093;SDS011;10206;48.012;10.030;2022-12-29T07:30:58;2.30;;;2.00;;
20093;SDS011;10206;48.012;10.030;2022-12-29T07:33:25;2.97;;;2.20;;
20093;SDS011;10206;48.012;10.030;2022-12-29T07:35:53;3.57;;;2.00;;
20093;SDS011;10206;48.012;10.030;2022-12-29T07:38:19;3.33;;;2.07;;
20093;SDS011;10206;48.012;10.030;2022-12-29T07:40:45;3.93;;;2.10;;
20093;SDS011;10206;48.012;10.030;2022-12-29T07:43:11;2.90;;;2.10;;
20093;SDS011;10206;48.012;10.030;2022-12-29T07:45:38;4.93;;;2.40;;
20093;SDS011;10206;48.012;10.030;2022-12-29T07:48:04;3.03;;;2.00;;
20093;SDS011;10206;48.012;10.030;2022-12-29T07:50:33;3.20;;;2.20;;
20093;SDS011;10206;48.012;10.030;2022-12-29T07:52:59;4.23;;;2.43;;
20093;SDS011;10206;48.012;10.030;2022-12-29T07:55:25;5.87;;;2.50;;
20093;SDS011;10206;48.012;10.030;2022-12-29T07:57:55;3.40;;;2.40;;
20093;SDS011;10206;48.012;10.030;2022-12-29T08:00:21;5.17;;;2.23;;
20093;SDS011;10206;48.012;10.030;2022-12-29T08:02:48;4.63;;;2.20;;
20093;SDS011;10206;48.012;10.030;2022-12-29T08:05:14;3.97;;;2.30;;
20093;SDS011;10206;48.012;10.030;2022-12-29T08:07:44;4.43;;;2.43;;
20093;SDS011;10206;48.012;10.030;2022-12-29T08:10:11;5.90;;;2.40;;
20093;SDS011;10206;48.012;10.030;2022-12-29T08:12:38;4.40;;;1.97;;
20093;SDS011;10206;48.012;10.030;2022-12-29T08:15:07;3.90;;;2.30;;
20093;SDS011;10206;48.012;10.030;2022-12-29T08:17:34;5.50;;;1.90;;
20093;SDS011;10206;48.012;10.030;2022-12-29T08:20:00;3.23;;;1.80;;
20093;SDS011;10206;48.012;10.030;2022-12-29T08:22:26;4.97;;;2.23;;
20093;SDS011;10206;48.012;10.030;2022-12-29T08:24:52;4.97;;;2.10;;
20093;SDS011;10206;48.012;10.030;2022-12-29T08:27:18;2.87;;;1.90;;
20093;SDS011;10206;48.012;10.030;2022-12-29T08:29:45;7.07;;;2.30;;
20093;SDS011;10206;48.012;10.030;2022-12-29T08:32:11;3.57;;;2.30;;
20093;SDS011;10206;48.012;10.030;2022-12-29T08:34:38;10.87;;;5.37;;
20093;SDS011;10206;48.012;10.030;2022-12-29T08:37:04;5.90;;;3.80;;
20093;SDS011;10206;48.012;10.030;2022-12-29T08:39:30;8.63;;;4.27;;
20093;SDS011;10206;48.012;10.030;2022-12-29T08:41:56;10.57;;;5.83;;
20093;SDS011;10206;48.012;10.030;2022-12-29T08:44:22;7.20;;;3.70;;
20093;SDS011;10206;48.012;10.030;2022-12-29T08:46:48;5.60;;;3.13;;
20093;SDS011;10206;48.012;10.030;2022-12-29T08:49:14;4.07;;;2.90;;
20093;SDS011;10206;48.012;10.030;2022-12-29T08:51:40;5.23;;;2.80;;
20093;SDS011;10206;48.012;10.030;2022-12-29T08:54:07;5.50;;;2.87;;
20093;SDS011;10206;48.012;10.030;2022-12-29T08:56:33;4.13;;;2.20;;
20093;SDS011;10206;48.012;10.030;2022-12-29T08:58:59;3.70;;;1.93;;
20093;SDS011;10206;48.012;10.030;2022-12-29T09:01:25;4.53;;;2.00;;
20093;SDS011;10206;48.012;10.030;2022-12-29T09:03:53;2.50;;;1.80;;
20093;SDS011;10206;48.012;10.030;2022-12-29T09:06:19;3.90;;;1.67;;
20093;SDS011;10206;48.012;10.030;2022-12-29T09:08:46;3.60;;;2.20;;
20093;SDS011;10206;48.012;10.030;2022-12-29T09:11:16;5.97;;;2.00;;
20093;SDS011;10206;48.012;10.030;2022-12-29T09:13:44;4.93;;;1.97;;
20093;SDS011;10206;48.012;10.030;2022-12-29T09:16:11;2.47;;;1.70;;
20093;SDS011;10206;48.012;10.030;2022-12-29T09:18:37;2.10;;;1.73;;
20093;SDS011;10206;48.012;10.030;2022-12-29T09:21:04;2.30;;;1.47;;
20093;SDS011;10206;48.012;10.030;2022-12-29T09:23:31;3.27;;;1.87;;
20093;SDS011;10206;48.012;10.030;2022-12-29T09:25:59;3.23;;;2.10;;
20093;SDS011;10206;48.012;10.030;2022-12-29T09:28:25;4.87;;;1.70;;
20093;SDS011;10206;48.012;10.030;2022-12-29T09:30:53;3.70;;;1.73;;
20093;SDS011;10206;48.012;10.030;2022-12-29T09:33:20;2.23;;;1.43;;
20093;SDS011;10206;48.012;10.030;2022-12-29T09:35:50;3.00;;;1.70;;
20093;SDS011;10206;48.012;10.030;2022-12-29T09:38:18;2.50;;;1.67;;
20093;SDS011;10206;48.012;10.030;2022-12-29T09:40:46;3.37;;;1.80;;
20093;SDS011;10206;48.012;10.030;2022-12-29T09:48:27;8.37;;;4.83;;
20093;SDS011;10206;48.012;10.030;2022-12-29T09:50:59;6.17;;;3.00;;
20093;SDS011;10206;48.012;10.030;2022-12-29T09:53:34;4.40;;;2.63;;
20093;SDS011;10206;48.012;10.030;2022-12-29T09:56:17;3.63;;;2.60;;
20093;SDS011;10206;48.012;10.030;2022-12-29T10:01:46;2.67;;;1.60;;
20093;SDS011;10206;48.012;10.030;2022-12-29T10:04:24;3.70;;;1.87;;
20093;SDS011;10206;48.012;10.030;2022-12-29T10:07:17;2.27;;;1.87;;
20093;SDS011;10206;48.012;10.030;2022-12-29T10:24:07;5.33;;;3.00;;
20093;SDS011;10206;48.012;10.030;2022-12-29T10:26:38;2.60;;;1.70;;
20093;SDS011;10206;48.012;10.030;2022-12-29T10:29:10;1.73;;;1.47;;
20093;SDS011;10206;48.012;10.030;2022-12-29T10:31:52;2.57;;;2.03;;
20093;SDS011;10206;48.012;10.030;2022-12-29T10:34:29;2.00;;;1.60;;
20093;SDS011;10206;48.012;10.030;2022-12-29T10:39:51;2.40;;;1.83;;
20093;SDS011;10206;48.012;10.030;2022-12-29T10:44:50;2.63;;;1.73;;
20093;SDS011;10206;48.012;10.030;2022-12-29T10:47:18;2.00;;;1.60;;
20093;SDS011;10206;48.012;10.030;2022-12-29T10:49:51;1.90;;;1.47;;
20093;SDS011;10206;48.012;10.030;2022-12-29T10:52:18;1.63;;;1.53;;
20093;SDS011;10206;48.012;10.030;2022-12-29T10:54:49;3.33;;;1.80;;
20093;SDS011;10206;48.012;10.030;2022-12-29T10:57:32;3.13;;;1.60;;
20093;SDS011;10206;48.012;10.030;2022-12-29T11:00:00;2.73;;;1.63;;
20093;SDS011;10206;48.012;10.030;2022-12-29T11:08:03;3.87;;;2.27;;
20093;SDS011;10206;48.012;10.030;2022-12-29T11:10:36;2.37;;;2.00;;
20093;SDS011;10206;48.012;10.030;2022-12-29T11:13:18;3.50;;;1.60;;
20093;SDS011;10206;48.012;10.030;2022-12-29T11:15:50;4.37;;;1.67;;
20093;SDS011;10206;48.012;10.030;2022-12-29T11:18:23;3.70;;;3.20;;
20093;SDS011;10206;48.012;10.030;2022-12-29T11:21:04;2.30;;;1.80;;
20093;SDS011;10206;48.012;10.030;2022-12-29T11:23:55;2.37;;;1.87;;
20093;SDS011;10206;48.012;10.030;2022-12-29T11:26:23;2.00;;;1.80;;
20093;SDS011;10206;48.012;10.030;2022-12-29T11:29:08;3.93;;;1.60;;
20093;SDS011;10206;48.012;10.030;2022-12-29T11:31:41;3.53;;;1.50;;
20093;SDS011;10206;48.012;10.030;2022-12-29T11:34:16;2.40;;;1.50;;
20093;SDS011;10206;48.012;10.030;2022-12-29T11:36:58;3.63;;;1.70;;
20093;SDS011;10206;48.012;10.030;2022-12-29T11:41:56;1.93;;;1.60;;
20093;SDS011;10206;48.012;10.030;2022-12-29T11:44:23;2.30;;;1.60;;
20093;SDS011;10206;48.012;10.030;2022-12-29T11:46:51;2.30;;;1.70;;
20093;SDS011;10206;48.012;10.030;2022-12-29T11:49:20;3.17;;;1.93;;
20093;SDS011;10206;48.012;10.030;2022-12-29T11:51:49;2.17;;;1.70;;
20093;SDS011;10206;48.012;10.030;2022-12-29T11:54:33;2.23;;;1.67;;
20093;SDS011;10206;48.012;10.030;2022-12-29T11:57:11;3.57;;;1.40;;
20093;SDS011;10206;48.012;10.030;2022-12-29T11:59:43;3.27;;;1.53;;
20093;SDS011;10206;48.012;10.030;2022-12-29T12:04:56;2.50;;;1.60;;
20093;SDS011;10206;48.012;10.030;2022-12-29T12:07:41;2.57;;;1.60;;
20093;SDS011;10206;48.012;10.030;2022-12-29T12:10:12;4.43;;;1.63;;
20093;SDS011;10206;48.012;10.030;2022-12-29T12:12:55;3.73;;;1.50;;
20093;SDS011;10206;48.012;10.030;2022-12-29T12:15:36;2.27;;;1.70;;
20093;SDS011;10206;48.012;10.030;2022-12-29T12:18:11;4.23;;;2.37;;
20093;SDS011;10206;48.012;10.030;2022-12-29T12:20:49;3.93;;;1.93;;
20093;SDS011;10206;48.012;10.030;2022-12-29T12:26:00;7.03;;;2.47;;
20093;SDS011;10206;48.012;10.030;2022-12-29T12:28:36;4.63;;;2.40;;
20093;SDS011;10206;48.012;10.030;2022-12-29T12:31:49;3.17;;;2.20;;
20093;SDS011;10206;48.012;10.030;2022-12-29T12:34:24;3.97;;;2.10;;
20093;SDS011;10206;48.012;10.030;2022-12-29T12:40:13;3.10;;;2.00;;
20093;SDS011;10206;48.012;10.030;2022-12-29T12:48:44;2.57;;;1.70;;
20093;SDS011;10206;48.012;10.030;2022-12-29T12:51:20;5.97;;;2.20;;
20093;SDS011;10206;48.012;10.030;2022-12-29T12:59:30;2.40;;;1.90;;
20093;SDS011;10206;48.012;10.030;2022-12-29T13:02:24;6.63;;;2.27;;
20093;SDS011;10206;48.012;10.030;2022-12-29T13:10:32;5.63;;;4.00;;
20093;SDS011;10206;48.012;10.030;2022-12-29T13:13:28;4.37;;;3.00;;
20093;SDS011;10206;48.012;10.030;2022-12-29T13:16:10;3.33;;;2.63;;
20093;SDS011;10206;48.012;10.030;2022-12-29T13:19:14;4.17;;;2.37;;
20093;SDS011;10206;48.012;10.030;2022-12-29T13:24:19;5.33;;;2.27;;
20093;SDS011;10206;48.012;10.030;2022-12-29T13:30:04;4.60;;;2.23;;
20093;SDS011;10206;48.012;10.030;2022-12-29T13:35:48;8.57;;;3.47;;
20093;SDS011;10206;48.012;10.030;2022-12-29T13:38:32;9.50;;;4.27;;
20093;SDS011;10206;48.012;10.030;2022-12-29T13:41:11;6.23;;;2.10;;
20093;SDS011;10206;48.012;10.030;2022-12-29T13:43:44;4.33;;;2.27;;
20093;SDS011;10206;48.012;10.030;2022-12-29T13:46:15;2.40;;;2.00;;
20093;SDS011;10206;48.012;10.030;2022-12-29T13:48:50;8.63;;;4.80;;
20093;SDS011;10206;48.012;10.030;2022-12-29T13:51:26;16.50;;;7.47;;
20093;SDS011;10206;48.012;10.030;2022-12-29T13:59:57;11.93;;;4.93;;
20093;SDS011;10206;48.012;10.030;2022-12-29T14:02:37;11.53;;;6.00;;
20093;SDS011;10206;48.012;10.030;2022-12-29T14:07:46;14.03;;;6.30;;
20093;SDS011;10206;48.012;10.030;2022-12-29T14:13:14;16.00;;;7.10;;
20093;SDS011;10206;48.012;10.030;2022-12-29T14:15:45;34.13;;;13.77;;
20093;SDS011;10206;48.012;10.030;2022-12-29T14:18:21;14.83;;;5.57;;
20093;SDS011;10206;48.012;10.030;2022-12-29T14:23:35;14.47;;;7.60;;
20093;SDS011;10206;48.012;10.030;2022-12-29T14:28:41;6.60;;;3.27;;
20093;SDS011;10206;48.012;10.030;2022-12-29T14:36:43;6.33;;;3.23;;
20093;SDS011;10206;48.012;10.030;2022-12-29T14:39:34;6.47;;;2.60;;
20093;SDS011;10206;48.012;10.030;2022-12-29T14:42:01;2.97;;;1.90;;
20093;SDS011;10206;48.012;10.030;2022-12-29T14:47:39;8.53;;;2.83;;
20093;SDS011;10206;48.012;10.030;2022-12-29T14:50:12;2.70;;;2.10;;
20093;SDS011;10206;48.012;10.030;2022-12-29T14:52:58;3.10;;;2.20;;
20093;SDS011;10206;48.012;10.030;2022-12-29T14:55:31;3.33;;;2.10;;
20093;SDS011;10206;48.012;10.030;2022-12-29T14:58:05;2.00;;;1.87;;
20093;SDS011;10206;48.012;10.030;2022-12-29T15:00:38;3.03;;;1.70;;
20093;SDS011;10206;48.012;10.030;2022-12-29T15:08:33;4.00;;;2.23;;
20093;SDS011;10206;48.012;10.030;2022-12-29T15:11:13;3.83;;;1.60;;
20093;SDS011;10206;48.012;10.030;2022-12-29T15:13:43;7.03;;;2.20;;
20093;SDS011;10206;48.012;10.030;2022-12-29T15:16:29;4.63;;;2.30;;
20093;SDS011;10206;48.012;10.030;2022-12-29T15:18:57;3.17;;;2.30;;
20093;SDS011;10206;48.012;10.030;2022-12-29T15:21:25;5.47;;;2.80;;
20093;SDS011;10206;48.012;10.030;2022-12-29T15:23:53;5.47;;;2.37;;
20093;SDS011;10206;48.012;10.030;2022-12-29T15:26:20;3.47;;;2.37;;
20093;SDS011;10206;48.012;10.030;2022-12-29T15:28:48;4.03;;;2.40;;
20093;SDS011;10206;48.012;10.030;2022-12-29T15:31:17;4.40;;;2.00;;
20093;SDS011;10206;48.012;10.030;2022-12-29T15:33:46;3.27;;;2.13;;
20093;SDS011;10206;48.012;10.030;2022-12-29T15:36:21;4.63;;;3.60;;
20093;SDS011;10206;48.012;10.030;2022-12-29T15:38:49;4.93;;;3.43;;
20093;SDS011;10206;48.012;10.030;2022-12-29T15:44:25;4.77;;;2.60;;
20093;SDS011;10206;48.012;10.030;2022-12-29T15:46:55;4.20;;;2.70;;
20093;SDS011;10206;48.012;10.030;2022-12-29T15:49:21;3.53;;;2.47;;
20093;SDS011;10206;48.012;10.030;2022-12-29T15:51:49;3.03;;;2.67;;
20093;SDS011;10206;48.012;10.030;2022-12-29T15:54:16;5.17;;;2.60;;
20093;SDS011;10206;48.012;10.030;2022-12-29T15:56:44;7.23;;;4.37;;
20093;SDS011;10206;48.012;10.030;2022-12-29T16:01:52;3.67;;;2.27;;
20093;SDS011;10206;48.012;10.030;2022-12-29T16:04:19;3.23;;;2.50;;
20093;SDS011;10206;48.012;10.030;2022-12-29T16:12:06;3.23;;;1.90;;
20093;SDS011;10206;48.012;10.030;2022-12-29T16:15:03;3.07;;;2.00;;
20093;SDS011;10206;48.012;10.030;2022-12-29T16:17:45;3.77;;;2.47;;
20093;SDS011;10206;48.012;10.030;2022-12-29T16:20:17;4.80;;;2.47;;
20093;SDS011;10206;48.012;10.030;2022-12-29T16:22:52;6.47;;;2.63;;
20093;SDS011;10206;48.012;10.030;2022-12-29T16:25:24;4.57;;;2.27;;
20093;SDS011;10206;48.012;10.030;2022-12-29T16:27:54;3.13;;;1.90;;
20093;SDS011;10206;48.012;10.030;2022-12-29T16:30:21;4.53;;;1.80;;
20093;SDS011;10206;48.012;10.030;2022-12-29T16:32:50;2.97;;;1.60;;
20093;SDS011;10206;48.012;10.030;2022-12-29T16:35:19;3.03;;;1.60;;
20093;SDS011;10206;48.012;10.030;2022-12-29T16:40:53;2.20;;;1.67;;
20093;SDS011;10206;48.012;10.030;2022-12-29T16:43:21;4.00;;;2.13;;
20093;SDS011;10206;48.012;10.030;2022-12-29T16:48:24;5.33;;;2.40;;
20093;SDS011;10206;48.012;10.030;2022-12-29T16:51:06;3.47;;;2.40;;
20093;SDS011;10206;48.012;10.030;2022-12-29T16:53:39;4.60;;;3.13;;
20093;SDS011;10206;48.012;10.030;2022-12-29T16:56:09;2.80;;;2.50;;
20093;SDS011;10206;48.012;10.030;2022-12-29T16:58:47;2.87;;;2.33;;
20093;SDS011;10206;48.012;10.030;2022-12-29T17:01:15;3.77;;;2.13;;
20093;SDS011;10206;48.012;10.030;2022-12-29T17:03:46;2.90;;;2.23;;
20093;SDS011;10206;48.012;10.030;2022-12-29T17:06:19;3.60;;;1.80;;
20093;SDS011;10206;48.012;10.030;2022-12-29T17:08:46;3.97;;;2.03;;
20093;SDS011;10206;48.012;10.030;2022-12-29T17:14:52;5.47;;;3.97;;
20093;SDS011;10206;48.012;10.030;2022-12-29T17:17:32;5.80;;;3.77;;
20093;SDS011;10206;48.012;10.030;2022-12-29T17:20:14;17.80;;;4.27;;
20093;SDS011;10206;48.012;10.030;2022-12-29T17:22:45;3.87;;;2.50;;
20093;SDS011;10206;48.012;10.030;2022-12-29T17:25:12;4.00;;;2.47;;
20093;SDS011;10206;48.012;10.030;2022-12-29T17:30:27;4.20;;;2.20;;